createdAt,value
2018-12-15T00:00:04.713Z,25.40
2018-12-15T00:02:33.259Z,22.60
2018-12-15T00:05:01.956Z,23.53
2018-12-15T00:07:30.599Z,26.03
2018-12-15T00:09:59.227Z,26.37
2018-12-15T00:12:27.832Z,26.33
2018-12-15T00:14:56.313Z,23.07
2018-12-15T00:17:24.839Z,25.83
2018-12-15T00:19:53.501Z,24.63
2018-12-15T00:22:22.119Z,28.27
2018-12-15T00:24:50.618Z,26.70
2018-12-15T00:27:19.154Z,29.80
2018-12-15T00:29:47.867Z,27.50
2018-12-15T00:32:16.386Z,28.87
2018-12-15T00:34:45.100Z,30.03
2018-12-15T00:37:13.709Z,32.07
2018-12-15T00:39:42.326Z,31.50
2018-12-15T00:42:11.087Z,28.10
2018-12-15T00:44:39.512Z,30.37
2018-12-15T00:47:13.736Z,24.77
2018-12-15T00:49:38.563Z,27.63
2018-12-15T00:52:07.044Z,27.03
2018-12-15T00:54:35.841Z,28.80
2018-12-15T00:57:04.454Z,29.90
2018-12-15T00:59:32.960Z,26.00
2018-12-15T01:02:01.589Z,29.30
2018-12-15T01:04:30.055Z,29.63
2018-12-15T01:06:58.991Z,30.87
2018-12-15T01:09:27.445Z,24.20
2018-12-15T01:11:56.236Z,26.50
2018-12-15T01:14:25.040Z,31.20
2018-12-15T01:16:53.789Z,28.53
2018-12-15T01:19:22.394Z,23.73
2018-12-15T01:21:50.903Z,32.47
2018-12-15T01:24:19.937Z,29.83
2018-12-15T01:26:48.674Z,26.63
2018-12-15T01:29:17.429Z,29.30
2018-12-15T01:31:46.194Z,28.70
2018-12-15T01:34:14.763Z,34.70
2018-12-15T01:36:43.242Z,28.90
2018-12-15T01:39:11.999Z,27.80
2018-12-15T01:41:40.922Z,28.63
2018-12-15T01:44:09.691Z,30.33
2018-12-15T01:46:38.621Z,34.53
2018-12-15T01:49:07.129Z,27.47
2018-12-15T01:51:35.699Z,29.87
2018-12-15T01:54:04.463Z,27.20
2018-12-15T01:56:33.061Z,29.13
2018-12-15T01:59:01.562Z,33.47
2018-12-15T02:01:30.311Z,34.70
2018-12-15T02:03:59.272Z,30.33
2018-12-15T02:06:27.922Z,29.17
2018-12-15T02:08:56.564Z,30.10
2018-12-15T02:11:25.068Z,32.60
2018-12-15T02:13:53.687Z,29.10
2018-12-15T02:16:22.238Z,31.60
2018-12-15T02:18:50.696Z,30.53
2018-12-15T02:21:19.473Z,31.97
2018-12-15T02:23:48.056Z,34.33
2018-12-15T02:26:16.787Z,30.53
2018-12-15T02:28:45.318Z,31.57
2018-12-15T02:31:13.794Z,29.43
2018-12-15T02:33:42.388Z,30.70
2018-12-15T02:36:11.280Z,31.87
2018-12-15T02:38:39.788Z,34.87
2018-12-15T02:41:08.264Z,30.20
2018-12-15T02:43:37.253Z,28.87
2018-12-15T02:46:05.669Z,30.60
2018-12-15T02:48:34.120Z,31.83
2018-12-15T02:51:02.706Z,29.93
2018-12-15T02:53:31.503Z,33.10
2018-12-15T02:55:59.982Z,35.77
2018-12-15T02:58:28.844Z,27.20
2018-12-15T03:00:57.607Z,33.10
2018-12-15T03:03:26.065Z,27.97
2018-12-15T03:05:54.568Z,28.17
2018-12-15T03:08:23.254Z,29.63
2018-12-15T03:10:51.765Z,32.80
2018-12-15T03:13:20.269Z,28.10
2018-12-15T03:15:48.690Z,30.17
2018-12-15T03:18:17.385Z,33.43
2018-12-15T03:21:02.418Z,29.10
2018-12-15T03:23:31.467Z,31.83
2018-12-15T03:26:00.000Z,32.83
2018-12-15T03:28:28.968Z,32.07
2018-12-15T03:30:57.687Z,30.57
2018-12-15T03:33:26.287Z,31.40
2018-12-15T03:35:55.071Z,31.63
2018-12-15T03:38:23.639Z,32.00
2018-12-15T03:40:52.240Z,33.00
2018-12-15T03:43:20.804Z,31.10
2018-12-15T03:45:49.520Z,32.90
2018-12-15T03:48:18.065Z,33.97
2018-12-15T03:50:47.295Z,28.90
2018-12-15T03:53:16.169Z,32.17
2018-12-15T03:55:44.861Z,31.83
2018-12-15T03:58:13.728Z,28.43
2018-12-15T04:00:42.237Z,31.20
2018-12-15T04:03:10.880Z,32.33
2018-12-15T04:05:39.957Z,31.57
2018-12-15T04:08:08.510Z,29.07
2018-12-15T04:10:37.132Z,32.20
2018-12-15T04:13:05.586Z,30.80
2018-12-15T04:15:34.550Z,30.57
2018-12-15T04:18:03.880Z,27.80
2018-12-15T04:20:32.687Z,33.13
2018-12-15T04:23:01.167Z,33.10
2018-12-15T04:25:29.806Z,28.43
2018-12-15T04:27:58.451Z,29.13
2018-12-15T04:30:26.998Z,30.43
2018-12-15T04:32:56.573Z,30.73
2018-12-15T04:35:25.325Z,37.43
2018-12-15T04:37:53.853Z,34.00
2018-12-15T04:40:22.756Z,34.17
2018-12-15T04:42:51.322Z,32.87
2018-12-15T04:45:20.099Z,32.67
2018-12-15T04:47:48.785Z,32.13
2018-12-15T04:50:17.365Z,30.63
2018-12-15T04:52:46.047Z,33.63
2018-12-15T04:55:15.200Z,33.27
2018-12-15T04:57:43.921Z,36.43
2018-12-15T05:00:12.520Z,33.80
2018-12-15T05:02:43.990Z,34.60
2018-12-15T05:05:12.519Z,29.73
2018-12-15T05:07:41.257Z,29.17
2018-12-15T05:10:09.774Z,31.63
2018-12-15T05:12:38.349Z,36.20
2018-12-15T05:15:07.203Z,30.70
2018-12-15T05:17:35.681Z,30.37
2018-12-15T05:20:05.275Z,31.60
2018-12-15T05:22:33.812Z,29.10
2018-12-15T05:25:02.724Z,37.57
2018-12-15T05:27:31.904Z,33.07
2018-12-15T05:30:00.421Z,31.87
2018-12-15T05:32:29.006Z,31.53
2018-12-15T05:34:57.511Z,30.03
2018-12-15T05:37:26.571Z,31.60
2018-12-15T05:39:55.272Z,32.17
2018-12-15T05:42:24.249Z,29.27
2018-12-15T05:44:52.772Z,29.80
2018-12-15T05:47:21.317Z,35.53
2018-12-15T05:49:50.067Z,36.53
2018-12-15T05:52:18.578Z,33.80
2018-12-15T05:54:47.084Z,33.43
2018-12-15T05:57:15.765Z,33.30
2018-12-15T05:59:44.280Z,33.30
2018-12-15T06:02:15.086Z,34.27
2018-12-15T06:04:43.632Z,31.87
2018-12-15T06:07:12.220Z,36.80
2018-12-15T06:09:40.975Z,30.30
2018-12-15T06:12:10.435Z,33.00
2018-12-15T06:14:39.365Z,28.20
2018-12-15T06:17:08.166Z,30.43
2018-12-15T06:19:37.196Z,31.57
2018-12-15T06:22:05.980Z,32.37
2018-12-15T06:24:34.741Z,31.30
2018-12-15T06:27:03.492Z,33.70
2018-12-15T06:29:32.482Z,33.40
2018-12-15T06:32:00.902Z,32.57
2018-12-15T06:34:29.404Z,31.37
2018-12-15T06:36:57.945Z,31.67
2018-12-15T06:39:26.493Z,31.27
2018-12-15T06:41:55.433Z,27.67
2018-12-15T06:44:24.211Z,30.40
2018-12-15T06:46:53.065Z,30.93
2018-12-15T06:49:21.800Z,32.53
2018-12-15T06:51:50.311Z,28.03
2018-12-15T06:54:18.867Z,31.53
2018-12-15T06:56:47.389Z,30.80
2018-12-15T06:59:15.955Z,31.13
2018-12-15T07:01:45.036Z,32.20
2018-12-15T07:04:13.675Z,29.70
2018-12-15T07:06:42.526Z,29.23
2018-12-15T07:09:11.216Z,33.00
2018-12-15T07:11:40.072Z,29.40
2018-12-15T07:14:08.766Z,31.57
2018-12-15T07:16:37.216Z,31.00
2018-12-15T07:19:06.238Z,28.87
2018-12-15T07:21:34.712Z,28.53
2018-12-15T07:24:03.212Z,32.23
2018-12-15T07:26:31.853Z,27.03
2018-12-15T07:29:01.955Z,29.03
2018-12-15T07:31:32.005Z,28.77
2018-12-15T07:34:00.846Z,24.47
2018-12-15T07:36:29.380Z,22.43
2018-12-15T07:38:57.877Z,23.17
2018-12-15T07:41:26.443Z,25.43
2018-12-15T07:43:54.974Z,21.67
2018-12-15T07:46:23.829Z,23.43
2018-12-15T07:48:52.324Z,22.23
2018-12-15T07:51:20.984Z,22.33
2018-12-15T07:53:49.536Z,20.07
2018-12-15T07:56:18.466Z,20.23
2018-12-15T07:58:47.101Z,22.73
2018-12-15T08:01:15.900Z,22.83
2018-12-15T08:03:44.510Z,21.53
2018-12-15T08:06:13.002Z,21.10
2018-12-15T08:08:41.831Z,25.57
2018-12-15T08:11:16.640Z,21.63
2018-12-15T08:13:48.316Z,25.77
2018-12-15T08:16:16.920Z,23.57
2018-12-15T08:18:45.848Z,25.67
2018-12-15T08:21:14.333Z,25.20
2018-12-15T08:23:42.878Z,24.40
2018-12-15T08:26:16.659Z,22.90
2018-12-15T08:28:45.266Z,25.80
2018-12-15T08:31:14.539Z,31.93
2018-12-15T08:33:43.057Z,24.70
2018-12-15T08:36:11.871Z,23.80
2018-12-15T08:38:40.464Z,26.73
2018-12-15T08:41:08.924Z,25.37
2018-12-15T08:43:37.706Z,25.40
2018-12-15T08:46:08.198Z,26.27
2018-12-15T08:48:36.962Z,25.63
2018-12-15T08:51:05.722Z,28.30
2018-12-15T08:53:34.229Z,27.87
2018-12-15T08:56:02.701Z,22.33
2018-12-15T08:58:31.166Z,23.40
2018-12-15T09:01:00.005Z,23.10
2018-12-15T09:03:28.576Z,24.97
2018-12-15T09:05:57.101Z,24.23
2018-12-15T09:08:25.724Z,23.50
2018-12-15T09:10:54.408Z,23.50
2018-12-15T09:13:22.884Z,25.13
2018-12-15T09:15:51.415Z,24.07
2018-12-15T09:18:19.932Z,22.17
2018-12-15T09:20:48.672Z,21.27
2018-12-15T09:23:17.192Z,23.33
2018-12-15T09:25:45.710Z,27.17
2018-12-15T09:28:14.248Z,23.60
2018-12-15T09:30:43.723Z,26.63
2018-12-15T09:33:12.291Z,27.03
2018-12-15T09:35:40.773Z,23.07
2018-12-15T09:38:09.314Z,27.00
2018-12-15T09:40:37.755Z,24.47
2018-12-15T09:43:06.436Z,26.60
2018-12-15T09:45:35.038Z,26.53
2018-12-15T09:48:03.664Z,24.43
2018-12-15T09:50:32.169Z,26.67
2018-12-15T09:53:00.926Z,24.77
2018-12-15T09:55:29.377Z,29.80
2018-12-15T09:57:57.835Z,26.20
2018-12-15T10:00:26.359Z,24.73
2018-12-15T10:02:54.940Z,23.90
2018-12-15T10:05:23.457Z,33.67
2018-12-15T10:07:51.910Z,25.70
2018-12-15T10:10:20.391Z,26.33
2018-12-15T10:12:48.808Z,28.83
2018-12-15T10:15:17.480Z,23.53
2018-12-15T10:17:46.109Z,22.87
2018-12-15T10:20:14.630Z,22.37
2018-12-15T10:22:43.106Z,26.30
2018-12-15T10:25:11.605Z,20.13
2018-12-15T10:27:40.316Z,22.07
2018-12-15T10:30:15.390Z,21.47
2018-12-15T10:32:49.350Z,22.10
2018-12-15T10:35:17.931Z,25.90
2018-12-15T10:37:46.443Z,22.30
2018-12-15T10:40:15.009Z,22.83
2018-12-15T10:42:43.541Z,22.03
2018-12-15T10:45:12.247Z,22.00
2018-12-15T10:47:40.857Z,21.40
2018-12-15T10:50:11.608Z,17.40
2018-12-15T10:52:40.170Z,22.57
2018-12-15T10:55:09.633Z,19.53
2018-12-15T10:57:38.392Z,20.23
2018-12-15T11:00:13.898Z,19.23
2018-12-15T11:02:42.435Z,18.50
2018-12-15T11:05:10.957Z,21.10
2018-12-15T11:07:39.554Z,24.10
2018-12-15T11:10:08.013Z,25.77
2018-12-15T11:12:36.545Z,22.03
2018-12-15T11:15:06.373Z,24.47
2018-12-15T11:17:34.864Z,22.97
2018-12-15T11:20:03.551Z,20.93
2018-12-15T11:22:32.149Z,22.20
2018-12-15T11:25:01.829Z,23.73
2018-12-15T11:27:30.343Z,22.60
2018-12-15T11:29:58.749Z,23.93
2018-12-15T11:32:27.200Z,21.77
2018-12-15T11:34:55.864Z,21.90
2018-12-15T11:37:24.348Z,23.17
2018-12-15T11:39:53.016Z,22.00
2018-12-15T11:42:21.529Z,25.40
2018-12-15T11:44:50.087Z,22.93
2018-12-15T11:47:18.813Z,18.67
2018-12-15T11:49:47.364Z,24.10
2018-12-15T11:52:15.983Z,21.43
2018-12-15T11:54:44.711Z,24.93
2018-12-15T11:57:13.358Z,25.67
2018-12-15T11:59:42.011Z,21.00
2018-12-15T12:02:11.503Z,18.97
2018-12-15T12:04:40.090Z,22.50
2018-12-15T12:07:08.619Z,23.20
2018-12-15T12:09:37.174Z,20.90
2018-12-15T12:12:05.665Z,21.00
2018-12-15T12:14:34.363Z,20.30
2018-12-15T12:17:04.042Z,22.63
2018-12-15T12:19:32.577Z,23.37
2018-12-15T12:22:01.407Z,21.83
2018-12-15T12:24:30.092Z,21.40
2018-12-15T12:26:58.793Z,21.40
2018-12-15T12:29:30.000Z,22.00
2018-12-15T12:31:58.772Z,22.60
2018-12-15T12:34:28.309Z,22.53
2018-12-15T12:36:58.128Z,21.53
2018-12-15T12:39:27.270Z,19.50
2018-12-15T12:41:55.773Z,21.13
2018-12-15T12:44:24.381Z,22.20
2018-12-15T12:46:52.976Z,25.43
2018-12-15T12:49:21.779Z,24.33
2018-12-15T12:51:50.317Z,23.23
2018-12-15T12:54:18.855Z,21.63
2018-12-15T12:56:47.665Z,24.10
2018-12-15T12:59:16.163Z,25.57
2018-12-15T13:01:54.767Z,23.70
2018-12-15T13:04:23.319Z,22.83
2018-12-15T13:06:51.872Z,22.50
2018-12-15T13:09:20.641Z,23.30
2018-12-15T13:11:49.721Z,25.80
2018-12-15T13:14:18.255Z,24.13
2018-12-15T13:16:47.005Z,20.43
2018-12-15T13:19:15.465Z,23.83
2018-12-15T13:21:44.022Z,22.17
2018-12-15T13:24:13.635Z,25.60
2018-12-15T13:26:42.513Z,21.90
2018-12-15T13:29:11.104Z,20.70
2018-12-15T13:31:39.678Z,24.97
2018-12-15T13:34:08.504Z,22.37
2018-12-15T13:36:37.291Z,23.40
2018-12-15T13:39:06.318Z,24.37
2018-12-15T13:41:35.009Z,26.70
2018-12-15T13:44:03.737Z,20.77
2018-12-15T13:46:32.219Z,20.90
2018-12-15T13:49:01.068Z,20.83
2018-12-15T13:51:29.667Z,22.77
2018-12-15T13:53:58.654Z,23.47
2018-12-15T13:56:27.234Z,22.23
2018-12-15T13:58:56.842Z,22.60
2018-12-15T14:01:25.338Z,21.90
2018-12-15T14:03:54.112Z,21.77
2018-12-15T14:06:22.815Z,20.40
2018-12-15T14:08:51.387Z,21.77
2018-12-15T14:11:19.991Z,27.80
2018-12-15T14:13:49.015Z,21.80
2018-12-15T14:16:17.902Z,25.83
2018-12-15T14:18:46.356Z,25.00
2018-12-15T14:21:15.016Z,26.00
2018-12-15T14:23:43.840Z,22.77
2018-12-15T14:26:13.032Z,24.00
2018-12-15T14:28:41.450Z,24.00
2018-12-15T14:31:09.953Z,30.83
2018-12-15T14:33:38.550Z,23.87
2018-12-15T14:36:07.092Z,25.30
2018-12-15T14:38:36.163Z,24.63
2018-12-15T14:41:04.773Z,26.77
2018-12-15T14:43:33.207Z,26.33
2018-12-15T14:46:02.049Z,22.80
2018-12-15T14:48:30.464Z,22.57
2018-12-15T14:50:58.945Z,24.33
2018-12-15T14:53:27.579Z,23.30
2018-12-15T14:55:56.318Z,26.63
2018-12-15T14:58:24.861Z,24.93
2018-12-15T15:00:53.372Z,24.57
2018-12-15T15:03:21.952Z,25.73
2018-12-15T15:05:50.638Z,28.20
2018-12-15T15:08:19.347Z,25.43
2018-12-15T15:10:47.891Z,29.23
2018-12-15T15:13:16.349Z,26.20
2018-12-15T15:15:44.850Z,27.10
2018-12-15T15:18:13.491Z,28.23
2018-12-15T15:20:42.148Z,28.20
2018-12-15T15:23:10.744Z,23.80
2018-12-15T15:29:24.754Z,27.43
2018-12-15T15:31:53.212Z,30.83
2018-12-15T15:34:21.720Z,26.93
2018-12-15T15:36:50.204Z,27.77
2018-12-15T15:39:18.845Z,27.60
2018-12-15T15:41:47.387Z,26.73
2018-12-15T15:44:15.951Z,28.50
2018-12-15T15:46:44.883Z,28.43
2018-12-15T15:49:13.600Z,31.27
2018-12-15T15:51:42.533Z,31.53
2018-12-15T15:54:11.433Z,29.10
2018-12-15T15:56:40.200Z,36.00
2018-12-15T15:59:08.794Z,30.90
2018-12-15T16:01:37.819Z,30.23
2018-12-15T16:04:06.945Z,29.27
2018-12-15T16:06:35.740Z,31.97
2018-12-15T16:09:08.322Z,27.27
2018-12-15T16:11:37.374Z,31.47
2018-12-15T16:14:05.915Z,28.43
2018-12-15T16:16:35.529Z,32.23
2018-12-15T16:19:04.590Z,30.83
2018-12-15T16:21:33.175Z,33.37
2018-12-15T16:24:01.722Z,27.00
2018-12-15T16:26:32.083Z,28.07
2018-12-15T16:29:16.153Z,32.87
2018-12-15T16:31:45.049Z,28.10
2018-12-15T16:34:13.512Z,30.20
2018-12-15T16:36:42.054Z,27.97
2018-12-15T16:39:12.985Z,28.30
2018-12-15T16:41:42.417Z,30.17
2018-12-15T16:44:11.292Z,32.73
2018-12-15T16:46:39.943Z,34.37
2018-12-15T16:49:09.573Z,28.50
2018-12-15T16:51:38.337Z,29.17
2018-12-15T16:54:18.053Z,28.30
2018-12-15T16:56:47.113Z,29.23
2018-12-15T16:59:15.718Z,29.17
2018-12-15T17:01:44.300Z,31.20
2018-12-15T17:04:12.751Z,28.13
2018-12-15T17:06:41.370Z,27.60
2018-12-15T17:09:10.444Z,25.53
2018-12-15T17:11:39.195Z,27.57
2018-12-15T17:14:07.823Z,30.70
2018-12-15T17:16:36.384Z,28.70
2018-12-15T17:19:05.500Z,26.93
2018-12-15T17:21:34.217Z,26.07
2018-12-15T17:24:02.764Z,28.77
2018-12-15T17:26:31.284Z,30.50
2018-12-15T17:29:00.144Z,29.50
2018-12-15T17:31:28.719Z,28.80
2018-12-15T17:33:57.655Z,26.97
2018-12-15T17:36:26.180Z,28.03
2018-12-15T17:38:54.697Z,29.03
2018-12-15T17:41:23.301Z,29.50
2018-12-15T17:43:52.129Z,24.03
2018-12-15T17:46:20.644Z,28.67
2018-12-15T17:48:49.158Z,31.33
2018-12-15T17:51:17.729Z,25.33
2018-12-15T17:53:46.680Z,29.23
2018-12-15T17:56:15.800Z,27.33
2018-12-15T17:58:44.236Z,26.87
2018-12-15T18:01:12.797Z,28.80
2018-12-15T18:03:41.296Z,29.37
2018-12-15T18:06:09.828Z,24.60
2018-12-15T18:08:38.620Z,28.97
2018-12-15T18:11:07.139Z,28.27
2018-12-15T18:13:35.784Z,30.37
2018-12-15T18:16:04.311Z,26.03
2018-12-15T18:18:33.009Z,26.13
2018-12-15T18:21:01.578Z,23.17
2018-12-15T18:23:30.057Z,24.63
2018-12-15T18:25:58.808Z,24.90
2018-12-15T18:28:27.378Z,22.07
2018-12-15T18:30:57.262Z,26.77
2018-12-15T18:33:25.837Z,24.30
2018-12-15T18:35:54.365Z,23.57
2018-12-15T18:38:23.001Z,23.70
2018-12-15T18:40:51.521Z,24.60
2018-12-15T18:43:20.622Z,25.37
2018-12-15T18:45:51.416Z,23.77
2018-12-15T18:48:19.892Z,26.70
2018-12-15T18:50:49.664Z,27.40
2018-12-15T18:53:19.552Z,26.43
2018-12-15T18:55:48.409Z,25.77
2018-12-15T18:58:17.844Z,27.03
2018-12-15T19:00:46.347Z,24.47
2018-12-15T19:03:14.951Z,26.37
2018-12-15T19:05:44.762Z,25.83
2018-12-15T19:08:13.397Z,25.10
2018-12-15T19:10:41.873Z,23.80
2018-12-15T19:13:11.566Z,26.83
2018-12-15T19:15:40.071Z,28.07
2018-12-15T19:18:08.619Z,25.37
2018-12-15T19:20:37.130Z,23.33
2018-12-15T19:23:08.372Z,25.40
2018-12-15T19:25:36.932Z,25.97
2018-12-15T19:28:05.437Z,28.03
2018-12-15T19:30:34.784Z,23.13
2018-12-15T19:33:04.189Z,24.77
2018-12-15T19:35:33.799Z,24.57
2018-12-15T19:38:02.303Z,26.17
2018-12-15T19:40:31.731Z,25.40
2018-12-15T19:43:00.921Z,29.87
2018-12-15T19:45:29.307Z,26.83
2018-12-15T19:47:57.900Z,28.00
2018-12-15T19:50:26.442Z,31.93
2018-12-15T19:52:54.842Z,24.70
2018-12-15T19:55:23.328Z,23.33
2018-12-15T19:57:51.773Z,27.23
2018-12-15T20:00:21.275Z,23.93
2018-12-15T20:02:49.799Z,27.37
2018-12-15T20:05:19.458Z,28.80
2018-12-15T20:07:47.984Z,22.23
2018-12-15T20:10:16.520Z,26.83
2018-12-15T20:12:44.996Z,27.40
2018-12-15T20:15:13.540Z,25.40
2018-12-15T20:17:41.976Z,24.97
2018-12-15T20:20:10.521Z,25.33
2018-12-15T20:22:39.056Z,22.10
2018-12-15T20:25:07.629Z,22.60
2018-12-15T20:27:36.196Z,28.43
2018-12-15T20:30:05.512Z,26.50
2018-12-15T20:32:34.575Z,24.17
2018-12-15T20:35:03.162Z,25.13
2018-12-15T20:37:31.815Z,25.50
2018-12-15T20:40:00.317Z,34.37
2018-12-15T20:42:28.822Z,21.60
2018-12-15T20:44:57.343Z,27.27
2018-12-15T20:47:28.090Z,26.33
2018-12-15T20:49:57.024Z,23.70
2018-12-15T20:52:25.549Z,26.37
2018-12-15T20:54:54.095Z,26.37
2018-12-15T20:57:22.650Z,26.17
2018-12-15T20:59:51.438Z,24.77
2018-12-15T21:02:20.727Z,22.57
2018-12-15T21:04:49.288Z,23.17
2018-12-15T21:07:18.775Z,34.10
2018-12-15T21:09:47.320Z,26.23
2018-12-15T21:12:15.756Z,19.93
2018-12-15T21:14:44.240Z,29.90
2018-12-15T21:17:12.783Z,25.57
2018-12-15T21:19:47.666Z,25.47
2018-12-15T21:22:13.018Z,26.43
2018-12-15T21:24:41.452Z,25.53
2018-12-15T21:27:09.937Z,26.20
2018-12-15T21:29:38.501Z,25.53
2018-12-15T21:32:07.007Z,24.47
2018-12-15T21:34:35.599Z,27.37
2018-12-15T21:37:04.165Z,23.67
2018-12-15T21:39:32.780Z,24.87
2018-12-15T21:42:01.452Z,25.47
2018-12-15T21:44:30.040Z,32.80
2018-12-15T21:46:58.604Z,26.67
2018-12-15T21:49:27.148Z,27.17
2018-12-15T21:51:56.333Z,28.27
2018-12-15T21:54:25.297Z,31.27
2018-12-15T21:56:53.942Z,32.33
2018-12-15T21:59:22.568Z,29.70
2018-12-15T22:01:51.198Z,29.70
2018-12-15T22:04:19.649Z,28.57
2018-12-15T22:06:48.184Z,31.67
2018-12-15T22:09:16.852Z,27.77
2018-12-15T22:11:45.390Z,31.83
2018-12-15T22:14:13.870Z,27.57
2018-12-15T22:16:42.325Z,28.63
2018-12-15T22:19:10.861Z,26.53
2018-12-15T22:21:39.416Z,36.83
2018-12-15T22:24:08.013Z,34.37
2018-12-15T22:26:36.686Z,33.70
2018-12-15T22:29:05.226Z,36.07
2018-12-15T22:31:34.521Z,34.43
2018-12-15T22:34:03.167Z,34.00
2018-12-15T22:36:31.807Z,30.70
2018-12-15T22:39:00.241Z,39.83
2018-12-15T22:41:38.696Z,33.33
2018-12-15T22:44:07.224Z,35.50
2018-12-15T22:46:35.716Z,36.47
2018-12-15T22:49:04.275Z,33.40
2018-12-15T22:51:32.803Z,35.90
2018-12-15T22:54:01.339Z,34.07
2018-12-15T22:56:29.783Z,37.17
2018-12-15T22:58:58.231Z,38.47
2018-12-15T23:01:26.807Z,34.63
2018-12-15T23:03:55.373Z,35.47
2018-12-15T23:06:23.936Z,40.17
2018-12-15T23:08:52.515Z,38.27
2018-12-15T23:11:21.150Z,42.27
2018-12-15T23:13:49.612Z,39.53
2018-12-15T23:16:18.111Z,32.60
2018-12-15T23:18:46.637Z,41.13
2018-12-15T23:21:15.147Z,41.43
2018-12-15T23:23:43.703Z,40.77
2018-12-15T23:26:12.168Z,39.60
2018-12-15T23:28:40.640Z,42.10
2018-12-15T23:31:09.187Z,39.03
2018-12-15T23:33:38.787Z,42.50
2018-12-15T23:36:07.253Z,41.73
2018-12-15T23:38:35.725Z,38.93
2018-12-15T23:41:04.298Z,43.93
2018-12-15T23:43:32.834Z,46.30
2018-12-15T23:46:01.375Z,47.03
2018-12-15T23:48:29.951Z,46.07
2018-12-15T23:50:59.413Z,45.20
2018-12-15T23:53:27.894Z,45.37
2018-12-15T23:55:56.350Z,40.87
2018-12-15T23:58:25.283Z,46.23
